Time;durP1;ratioP1;P1;durP2;ratioP2;P2;SDS_P1;SDS_P2;PMS_P1;PMS_P2;Temp;Humidity;BMP_temperature;BMP_pressure;BME280_temperature;BME280_humidity;BME280_pressure;Samples;Min_cycle;Max_cycle;Signal;HPM_P1;HPM_P2
2023/03/30 00:00:19;;;;;;;8.02;3.70;;;;;;;11.94;100.00;99850.44;4996228;28;20042;-88
2023/03/30 00:02:52;;;;;;;6.00;3.70;;;;;;;11.93;100.00;99862.00;5004700;28;20055;-90
2023/03/30 00:05:29;;;;;;;9.02;3.95;;;;;;;11.73;100.00;99835.78;4970149;28;20052;-89
2023/03/30 00:08:08;;;;;;;6.82;4.10;;;;;;;11.92;100.00;99867.41;5000895;28;20049;-89
2023/03/30 00:10:37;;;;;;;8.52;3.90;;;;;;;11.74;100.00;99834.84;4983425;28;20085;-89
2023/03/30 00:13:06;;;;;;;6.95;3.80;;;;;;;11.92;100.00;99870.91;4984479;28;20066;-88
2023/03/30 00:15:35;;;;;;;6.95;3.95;;;;;;;11.74;100.00;99837.50;4983446;28;20049;-87
2023/03/30 00:18:04;;;;;;;6.47;3.80;;;;;;;11.64;100.00;99799.22;5003933;28;20078;-89
2023/03/30 00:20:32;;;;;;;5.97;3.92;;;;;;;11.89;100.00;99849.84;5003584;28;20139;-90
2023/03/30 00:22:59;;;;;;;4.97;3.35;;;;;;;11.61;100.00;99799.41;4997148;28;20053;-87
2023/03/30 00:25:27;;;;;;;6.63;3.55;;;;;;;11.95;100.00;99851.28;4993621;28;20046;-91
2023/03/30 00:27:55;;;;;;;6.72;3.05;;;;;;;11.79;100.00;99822.19;4979752;28;20771;-90
2023/03/30 00:30:22;;;;;;;5.78;3.53;;;;;;;11.91;100.00;99840.00;5003367;28;20046;-90
2023/03/30 00:32:50;;;;;;;7.50;3.83;;;;;;;11.96;100.00;99846.84;5003986;28;20109;-90
2023/03/30 00:35:29;;;;;;;7.10;3.75;;;;;;;11.95;100.00;99851.28;4976875;28;20166;-89
2023/03/30 00:38:02;;;;;;;7.78;3.58;;;;;;;11.93;100.00;99846.06;4979609;28;20038;-88
2023/03/30 00:40:33;;;;;;;7.88;3.30;;;;;;;11.62;100.00;99793.16;4994005;28;20103;-89
2023/03/30 00:43:06;;;;;;;7.72;3.50;;;;;;;11.93;100.00;99842.56;4979009;28;20042;-89
2023/03/30 00:45:35;;;;;;;7.65;3.55;;;;;;;11.64;100.00;99783.31;4985123;28;20066;-90
2023/03/30 00:48:05;;;;;;;8.05;3.20;;;;;;;11.94;100.00;99828.34;4992470;28;20050;-88
2023/03/30 00:50:36;;;;;;;6.38;3.08;;;;;;;11.93;100.00;99821.34;5005448;28;20042;-87
2023/03/30 00:53:15;;;;;;;5.53;3.35;;;;;;;11.93;100.00;99829.31;4988552;28;20034;-88
2023/03/30 00:55:48;;;;;;;7.22;3.20;;;;;;;11.59;100.00;99767.66;4992730;28;20046;-86
2023/03/30 00:58:17;;;;;;;5.43;3.35;;;;;;;11.73;100.00;99787.19;5009564;28;20054;-88
2023/03/30 01:00:49;;;;;;;4.35;2.90;;;;;;;11.52;100.00;99762.81;5006269;28;20053;-88
2023/03/30 01:03:26;;;;;;;6.65;2.95;;;;;;;11.79;100.00;99802.78;4984427;28;20077;-87
2023/03/30 01:06:08;;;;;;;8.90;3.50;;;;;;;11.56;100.00;99773.16;4986323;28;20090;-89
2023/03/30 01:08:36;;;;;;;6.25;3.38;;;;;;;11.76;100.00;99808.25;5007766;28;20069;-89
2023/03/30 01:11:05;;;;;;;5.93;3.28;;;;;;;11.38;100.00;99749.56;5006743;28;20069;-90
2023/03/30 01:13:38;;;;;;;4.93;3.25;;;;;;;11.67;100.00;99814.06;4999111;28;20042;-90
2023/03/30 01:16:22;;;;;;;6.03;3.45;;;;;;;11.24;100.00;99755.69;5000859;28;20046;-92
2023/03/30 01:19:10;;;;;;;4.82;3.13;;;;;;;11.55;100.00;99802.41;5010842;28;20137;-89
2023/03/30 01:21:59;;;;;;;5.00;3.25;;;;;;;11.52;100.00;99807.91;4994940;28;20104;-90
2023/03/30 01:24:57;;;;;;;6.03;2.97;;;;;;;11.48;100.00;99817.00;5023636;28;20097;-87
2023/03/30 01:27:48;;;;;;;7.47;3.42;;;;;;;11.45;100.00;99818.03;5012721;28;20042;-87
2023/03/30 01:30:40;;;;;;;8.02;3.70;;;;;;;11.34;100.00;99801.88;4999732;28;20457;-90
2023/03/30 01:33:35;;;;;;;7.60;3.60;;;;;;;11.47;100.00;99823.25;4998332;28;20531;-90
2023/03/30 01:36:22;;;;;;;6.57;3.40;;;;;;;11.51;100.00;99824.75;5012738;28;20049;-89
2023/03/30 01:39:15;;;;;;;8.57;3.35;;;;;;;11.57;100.00;99817.28;5002385;28;20515;-89
2023/03/30 01:41:51;;;;;;;7.60;3.70;;;;;;;11.62;100.00;99816.16;4992578;28;20055;-90
2023/03/30 01:44:46;;;;;;;4.97;3.13;;;;;;;11.64;100.00;99799.22;4996692;28;20194;-90
2023/03/30 01:47:32;;;;;;;9.95;3.90;;;;;;;11.51;100.00;99766.41;4994631;28;20052;-89
2023/03/30 01:50:12;;;;;;;7.35;3.65;;;;;;;11.36;100.00;99727.56;4996210;28;20469;-90
2023/03/30 01:52:54;;;;;;;8.73;3.22;;;;;;;11.54;100.00;99759.13;4984261;28;20098;-85
2023/03/30 01:55:27;;;;;;;7.93;3.03;;;;;;;11.67;100.00;99777.78;4998543;28;20121;-91
2023/03/30 01:58:08;;;;;;;8.20;3.15;;;;;;;11.87;100.00;99806.66;5009418;28;20074;-90
2023/03/30 02:00:40;;;;;;;7.63;2.97;;;;;;;11.88;100.00;99816.31;5011570;28;20114;-90
2023/03/30 02:03:15;;;;;;;8.48;3.20;;;;;;;11.92;100.00;99832.91;4984181;28;20038;-92
2023/03/30 02:06:16;;;;;;;10.38;3.25;;;;;;;11.89;100.00;99825.13;4989001;28;20066;-91
2023/03/30 02:08:48;;;;;;;6.43;3.90;;;;;;;11.86;100.00;99814.69;5004659;28;20046;-91
2023/03/30 02:11:16;;;;;;;6.63;3.08;;;;;;;11.81;100.00;99803.50;4988414;28;20328;-90
2023/03/30 02:13:46;;;;;;;7.85;3.33;;;;;;;11.90;100.00;99805.59;4980898;28;20042;-87
2023/03/30 02:16:33;;;;;;;6.22;3.28;;;;;;;11.76;100.00;99793.19;4968789;28;20046;-90
2023/03/30 02:19:05;;;;;;;5.70;3.67;;;;;;;11.70;100.00;99777.63;4981388;28;20038;-92
2023/03/30 02:21:32;;;;;;;8.25;3.33;;;;;;;11.84;100.00;99805.97;4979479;28;20600;-90
2023/03/30 02:24:02;;;;;;;7.55;3.15;;;;;;;11.83;100.00;99810.41;4981690;28;22314;-90
2023/03/30 02:26:31;;;;;;;6.50;3.45;;;;;;;11.82;100.00;99823.78;4996676;28;20653;-88
2023/03/30 02:28:59;;;;;;;7.97;3.45;;;;;;;11.53;100.00;99791.91;4977550;28;20046;-91
2023/03/30 02:31:27;;;;;;;10.73;3.65;;;;;;;11.75;100.00;99817.13;5006210;28;20046;-90
2023/03/30 02:34:07;;;;;;;8.20;3.08;;;;;;;11.78;100.00;99819.63;4991877;28;20047;-92
2023/03/30 02:37:13;;;;;;;6.95;3.08;;;;;;;11.87;100.00;99816.41;4980004;28;20409;-92
2023/03/30 02:40:23;;;;;;;9.57;2.90;;;;;;;11.91;100.00;99828.53;4996630;28;20057;-92
2023/03/30 02:43:13;;;;;;;5.82;3.17;;;;;;;11.87;100.00;99800.47;4982186;28;20043;-93
2023/03/30 02:46:15;;;;;;;6.15;3.25;;;;;;;11.91;100.00;99802.00;4995559;28;20292;-91
2023/03/30 02:49:15;;;;;;;8.52;3.40;;;;;;;11.81;100.00;99769.88;5001245;28;20821;-87
2023/03/30 02:52:10;;;;;;;5.72;3.25;;;;;;;12.03;100.00;99787.97;4999090;28;20104;-89
2023/03/30 02:55:01;;;;;;;6.57;3.35;;;;;;;12.06;100.00;99778.97;4990648;28;20074;-88
2023/03/30 02:57:53;;;;;;;4.90;3.10;;;;;;;12.06;100.00;99787.78;4993957;28;20030;-87
2023/03/30 03:00:45;;;;;;;8.55;3.65;;;;;;;12.10;100.00;99791.09;4993614;28;20042;-86
2023/03/30 03:03:26;;;;;;;6.75;3.03;;;;;;;11.99;100.00;99785.59;5010872;28;20069;-87
2023/03/30 03:05:54;;;;;;;11.00;3.05;;;;;;;12.01;100.00;99786.34;4995365;28;20097;-90
2023/03/30 03:08:23;;;;;;;7.70;3.13;;;;;;;12.08;99.98;99785.91;4993336;28;20050;-90
2023/03/30 03:10:53;;;;;;;9.13;3.00;;;;;;;12.14;99.46;99817.34;5001542;28;20049;-89
2023/03/30 03:13:23;;;;;;;8.55;3.10;;;;;;;12.23;98.68;99827.41;4993307;28;20042;-88
2023/03/30 03:15:54;;;;;;;7.15;3.40;;;;;;;12.27;98.71;99836.03;4999798;28;20047;-88
2023/03/30 03:18:23;;;;;;;8.40;3.17;;;;;;;12.04;98.34;99784.38;5000074;28;20074;-87
2023/03/30 03:20:50;;;;;;;8.50;2.75;;;;;;;12.38;98.17;99822.91;4990614;28;20047;-88
2023/03/30 03:23:17;;;;;;;7.75;3.05;;;;;;;12.25;98.08;99814.03;4990831;28;20042;-86
2023/03/30 03:25:44;;;;;;;10.45;3.15;;;;;;;12.35;97.93;99827.56;4990268;28;20065;-87
2023/03/30 03:28:11;;;;;;;6.70;2.75;;;;;;;12.29;98.42;99804.91;4992516;28;20031;-85
2023/03/30 03:30:41;;;;;;;10.40;2.85;;;;;;;12.36;98.31;99816.00;5011165;28;20043;-87
2023/03/30 03:33:10;;;;;;;9.57;3.40;;;;;;;12.42;98.54;99835.06;4988047;28;20049;-89
2023/03/30 03:35:38;;;;;;;8.50;3.00;;;;;;;12.27;97.20;99809.47;4998487;28;20054;-89
2023/03/30 03:38:06;;;;;;;6.97;3.13;;;;;;;12.39;97.60;99829.94;4986879;28;20050;-86
2023/03/30 03:40:33;;;;;;;8.02;3.05;;;;;;;12.10;97.15;99772.53;4996625;28;20046;-92
2023/03/30 03:43:00;;;;;;;6.72;2.90;;;;;;;12.35;96.91;99801.88;4985061;28;20129;-90
2023/03/30 03:45:27;;;;;;;9.75;3.17;;;;;;;12.22;97.46;99769.94;4981328;28;20101;-89
2023/03/30 03:47:56;;;;;;;11.65;3.60;;;;;;;12.41;97.44;99785.56;5004224;28;20082;-89
2023/03/30 03:50:23;;;;;;;7.22;3.00;;;;;;;12.47;97.05;99768.34;4978775;28;20085;-89
2023/03/30 03:52:50;;;;;;;6.60;2.83;;;;;;;12.22;96.50;99674.38;4979161;28;20072;-87
2023/03/30 03:55:18;;;;;;;6.47;2.70;;;;;;;12.34;95.90;99653.28;4979769;28;20054;-89
2023/03/30 03:57:45;;;;;;;7.60;3.40;;;;;;;12.56;95.62;99666.84;4980421;28;20463;-92
2023/03/30 04:00:15;;;;;;;13.10;2.65;;;;;;;12.42;96.12;99648.34;4993218;28;20046;-91
2023/03/30 04:02:43;;;;;;;10.30;3.10;;;;;;;12.63;96.33;99679.63;4981946;28;20046;-91
2023/03/30 04:05:10;;;;;;;10.23;2.90;;;;;;;12.62;96.56;99682.38;4991500;28;20054;-90
2023/03/30 04:07:37;;;;;;;10.00;3.40;;;;;;;12.58;96.29;99678.25;5010000;28;20074;-90
2023/03/30 04:10:06;;;;;;;14.30;2.80;;;;;;;12.58;96.35;99676.44;4996986;28;20057;-90
2023/03/30 04:12:34;;;;;;;8.40;2.95;;;;;;;12.60;95.66;99661.22;5011248;28;20046;-91
2023/03/30 04:15:01;;;;;;;9.10;2.88;;;;;;;12.69;96.68;99685.47;4983356;28;20054;-90
2023/03/30 04:17:32;;;;;;;6.95;2.67;;;;;;;12.65;97.87;99679.50;4995913;28;20129;-90
2023/03/30 04:20:04;;;;;;;9.43;3.40;;;;;;;12.49;97.94;99650.47;4980732;28;20048;-92
2023/03/30 04:22:40;;;;;;;11.45;3.22;;;;;;;12.60;99.42;99676.31;4981386;28;20070;-91
2023/03/30 04:25:10;;;;;;;11.10;3.20;;;;;;;12.40;100.00;99651.09;4982015;28;20045;-91
2023/03/30 04:27:41;;;;;;;11.50;3.00;;;;;;;12.21;100.00;99618.75;4978055;28;20078;-91
2023/03/30 04:30:12;;;;;;;9.73;2.95;;;;;;;12.34;100.00;99624.09;4972922;28;20466;-91
2023/03/30 04:32:40;;;;;;;9.13;3.00;;;;;;;12.27;100.00;99616.56;4975773;28;20066;-91
2023/03/30 04:35:10;;;;;;;10.18;3.30;;;;;;;12.39;100.00;99638.78;4992776;28;20069;-91
2023/03/30 04:37:40;;;;;;;9.05;3.20;;;;;;;12.27;100.00;99637.78;4978235;28;20061;-91
2023/03/30 04:40:08;;;;;;;7.57;3.53;;;;;;;12.11;100.00;99625.63;4990210;28;20046;-91
2023/03/30 04:42:37;;;;;;;8.30;2.92;;;;;;;11.91;100.00;99616.28;4996179;28;20480;-90
2023/03/30 04:45:07;;;;;;;11.05;3.08;;;;;;;12.16;100.00;99674.78;4979663;28;20046;-88
2023/03/30 04:47:34;;;;;;;14.20;3.40;;;;;;;12.21;100.00;99678.00;5006109;28;20072;-89
2023/03/30 04:50:02;;;;;;;9.00;3.30;;;;;;;12.17;100.00;99675.63;4996822;28;21523;-91
2023/03/30 04:52:33;;;;;;;9.45;3.25;;;;;;;12.13;100.00;99690.03;4999792;28;20049;-90
2023/03/30 04:55:00;;;;;;;8.95;3.10;;;;;;;12.12;100.00;99683.88;4978862;28;20106;-89
2023/03/30 04:57:27;;;;;;;9.20;3.88;;;;;;;11.87;100.00;99636.84;4981144;28;20050;-88
2023/03/30 05:00:00;;;;;;;8.63;3.40;;;;;;;12.11;100.00;99663.63;4988584;28;20078;-88
2023/03/30 05:02:27;;;;;;;8.40;3.03;;;;;;;12.12;100.00;99654.69;4985551;28;20034;-88
2023/03/30 05:04:54;;;;;;;10.85;3.60;;;;;;;12.04;100.00;99640.22;4988194;28;20341;-91
2023/03/30 05:07:21;;;;;;;10.07;3.70;;;;;;;12.21;100.00;99677.13;5009317;28;20042;-88
2023/03/30 05:09:48;;;;;;;11.45;3.40;;;;;;;11.93;100.00;99635.63;5005023;28;20066;-89
2023/03/30 05:12:25;;;;;;;12.63;4.32;;;;;;;12.27;100.00;99696.19;5006450;28;20065;-88
2023/03/30 05:14:55;;;;;;;10.85;4.03;;;;;;;12.32;100.00;99708.28;5008827;28;20054;-90
2023/03/30 05:17:24;;;;;;;8.80;4.10;;;;;;;12.34;100.00;99699.28;5010130;28;20078;-90
2023/03/30 05:19:52;;;;;;;10.52;3.90;;;;;;;12.10;100.00;99664.56;5007301;28;20050;-90
2023/03/30 05:22:19;;;;;;;7.55;3.85;;;;;;;12.36;100.00;99707.16;4995578;28;20045;-88
2023/03/30 05:24:46;;;;;;;9.57;4.03;;;;;;;12.33;100.00;99686.94;4991776;28;20046;-90
2023/03/30 05:27:13;;;;;;;11.27;4.15;;;;;;;12.28;100.00;99643.91;5004380;28;20042;-89
2023/03/30 05:29:40;;;;;;;12.80;3.70;;;;;;;12.22;100.00;99641.69;5010180;28;20106;-91
2023/03/30 05:32:14;;;;;;;9.68;3.65;;;;;;;11.89;100.00;99587.22;5071624;23;20048;-89
2023/03/30 05:34:45;;;;;;;13.48;4.75;;;;;;;11.99;100.00;99615.78;4986872;28;20125;-91
2023/03/30 05:37:13;;;;;;;13.73;4.32;;;;;;;11.58;100.00;99572.38;4957460;28;20058;-89
2023/03/30 05:39:43;;;;;;;12.27;4.40;;;;;;;11.75;100.00;99629.66;4964725;28;20140;-90
2023/03/30 05:42:10;;;;;;;12.23;3.77;;;;;;;11.65;100.00;99628.53;4982417;28;20051;-89
2023/03/30 05:45:28;;;;;;;8.65;3.85;;;;;;;11.80;100.00;99671.84;4989072;28;20070;-91
2023/03/30 05:48:13;;;;;;;11.38;3.55;;;;;;;11.60;100.00;99628.84;4963279;28;20146;-89
2023/03/30 05:50:41;;;;;;;13.88;4.25;;;;;;;11.86;100.00;99671.44;4972742;28;20106;-89
2023/03/30 05:53:10;;;;;;;;;;;;;;;12.01;100.00;99712.06;4978634;28;20129;-87
2023/03/30 05:55:51;;;;;;;10.73;3.83;;;;;;;11.36;100.00;99609.16;4965421;28;19918;-88
2023/03/30 05:58:18;;;;;;;12.55;4.15;;;;;;;11.56;100.00;99669.75;4979901;28;20138;-88
2023/03/30 06:00:48;;;;;;;10.85;3.53;;;;;;;11.68;100.00;99699.09;4964083;28;20051;-86
2023/03/30 06:03:16;;;;;;;15.35;4.25;;;;;;;11.65;100.00;99697.47;4979518;28;20106;-86
2023/03/30 06:05:45;;;;;;;17.73;4.35;;;;;;;11.19;100.00;99622.59;4978075;28;20042;-86
2023/03/30 06:08:13;;;;;;;14.63;4.55;;;;;;;11.37;100.00;99661.22;4976392;28;20518;-84
2023/03/30 06:10:41;;;;;;;15.15;4.35;;;;;;;11.47;100.00;99672.97;4968368;28;20078;-85
2023/03/30 06:13:07;;;;;;;10.88;4.45;;;;;;;11.34;100.00;99642.84;4979040;28;20217;-87
2023/03/30 06:15:34;;;;;;;15.48;3.95;;;;;;;11.59;100.00;99696.06;4963339;28;20461;-86
2023/03/30 06:18:02;;;;;;;15.25;3.95;;;;;;;11.61;100.00;99709.25;4961269;28;20401;-86
2023/03/30 06:20:29;;;;;;;11.70;3.88;;;;;;;11.59;100.00;99711.97;4985989;28;20097;-86
2023/03/30 06:22:56;;;;;;;12.10;3.53;;;;;;;11.67;100.00;99726.56;4975458;28;20584;-85
2023/03/30 06:25:24;;;;;;;15.25;4.28;;;;;;;11.75;100.00;99742.84;4971400;28;20397;-85
2023/03/30 06:27:51;;;;;;;14.43;4.57;;;;;;;11.66;100.00;99740.75;4979191;28;20053;-86
2023/03/30 06:30:20;;;;;;;14.35;4.15;;;;;;;11.76;100.00;99737.50;4978147;28;20522;-85
2023/03/30 06:32:47;;;;;;;12.00;3.88;;;;;;;11.68;100.00;99730.91;4961356;28;20070;-85
2023/03/30 06:35:15;;;;;;;13.93;4.15;;;;;;;11.75;100.00;99724.28;4987113;28;20133;-85
2023/03/30 06:37:43;;;;;;;15.75;4.40;;;;;;;11.88;100.00;99712.84;4975911;28;20484;-84
2023/03/30 06:40:12;;;;;;;14.35;4.57;;;;;;;11.94;100.00;99716.91;4973012;28;20145;-85
2023/03/30 06:42:40;;;;;;;14.98;4.43;;;;;;;11.82;100.00;99691.13;4976513;28;20053;-85
2023/03/30 06:45:09;;;;;;;14.38;4.30;;;;;;;11.93;100.00;99726.69;4978406;28;20039;-85
2023/03/30 06:47:39;;;;;;;10.82;4.10;;;;;;;11.90;100.00;99683.56;4989473;28;20538;-85
2023/03/30 06:50:07;;;;;;;15.73;4.35;;;;;;;11.95;100.00;99694.75;4956903;28;20134;-85
2023/03/30 06:52:36;;;;;;;13.15;4.20;;;;;;;11.95;100.00;99710.66;4973195;28;20051;-84
2023/03/30 06:55:07;;;;;;;14.77;4.53;;;;;;;12.02;100.00;99727.03;4963842;28;20039;-86
2023/03/30 06:57:37;;;;;;;14.82;4.30;;;;;;;11.98;100.00;99713.09;4964371;28;20110;-84
2023/03/30 07:00:12;;;;;;;18.95;4.63;;;;;;;11.79;100.00;99670.13;4986441;28;20035;-84
2023/03/30 07:02:44;;;;;;;15.73;4.07;;;;;;;11.97;100.00;99714.06;4971462;28;20051;-84
2023/03/30 07:05:14;;;;;;;14.50;4.40;;;;;;;11.94;100.00;99709.81;4966745;28;20054;-85
2023/03/30 07:07:45;;;;;;;11.07;3.75;;;;;;;11.97;100.00;99700.78;4972647;28;20046;-87
2023/03/30 07:10:12;;;;;;;16.92;4.20;;;;;;;11.98;100.00;99705.13;4962188;28;20134;-86
2023/03/30 07:12:40;;;;;;;12.65;4.78;;;;;;;11.99;100.00;99724.56;4974876;28;20041;-88
2023/03/30 07:15:10;;;;;;;10.40;4.47;;;;;;;11.89;100.00;99721.66;4959881;28;20042;-86
2023/03/30 07:17:37;;;;;;;13.68;4.50;;;;;;;11.82;100.00;99680.53;4961651;28;20078;-88
2023/03/30 07:20:08;;;;;;;15.40;4.37;;;;;;;11.94;100.00;99696.53;4970264;28;20050;-88
2023/03/30 07:22:35;;;;;;;16.15;4.20;;;;;;;12.10;100.00;99720.31;4974515;28;20392;-86
2023/03/30 07:25:04;;;;;;;17.05;5.78;;;;;;;12.27;100.00;99751.09;4953049;28;20073;-86
2023/03/30 07:27:31;;;;;;;14.00;4.13;;;;;;;12.17;100.00;99734.00;4971714;28;20094;-87
2023/03/30 07:30:08;;;;;;;18.58;4.50;;;;;;;12.23;100.00;99734.50;4972576;28;20051;-86
2023/03/30 07:32:49;;;;;;;13.38;4.13;;;;;;;12.08;100.00;99703.63;4973454;28;20130;-87
2023/03/30 07:35:17;;;;;;;13.48;4.65;;;;;;;12.24;100.00;99725.56;4981507;28;20051;-86
2023/03/30 07:37:44;;;;;;;13.18;4.30;;;;;;;12.12;100.00;99689.19;4969840;28;20491;-85
2023/03/30 07:40:17;;;;;;;10.38;4.00;;;;;;;12.26;100.00;99721.03;4971900;28;20042;-86
2023/03/30 07:42:47;;;;;;;9.93;4.07;;;;;;;12.22;100.00;99735.44;4959218;28;20051;-87
2023/03/30 07:45:16;;;;;;;12.50;4.05;;;;;;;12.25;100.00;99759.13;4972550;28;20101;-86
2023/03/30 07:47:44;;;;;;;10.60;3.92;;;;;;;12.26;100.00;99760.84;4921883;28;20134;-85
2023/03/30 07:50:14;;;;;;;10.50;3.70;;;;;;;12.19;100.00;99738.28;4956198;28;20173;-85
2023/03/30 07:52:40;;;;;;;16.63;4.55;;;;;;;12.36;100.00;99750.47;4959778;28;20322;-85
2023/03/30 07:55:07;;;;;;;12.38;3.97;;;;;;;12.17;100.00;99691.56;4975109;28;20100;-87
2023/03/30 07:57:36;;;;;;;11.80;3.90;;;;;;;12.61;100.00;99729.31;4955143;28;20069;-83
2023/03/30 08:00:09;;;;;;;8.70;4.57;;;;;;;12.69;100.00;99726.19;4968275;28;21019;-85
2023/03/30 08:02:41;;;;;;;13.05;3.72;;;;;;;12.70;100.00;99725.22;4973537;28;20098;-85
2023/03/30 08:05:10;;;;;;;9.17;4.00;;;;;;;12.43;100.00;99681.91;4958561;28;20476;-84
2023/03/30 08:07:38;;;;;;;9.88;4.65;;;;;;;12.59;100.00;99731.22;4973054;28;20318;-85
2023/03/30 08:10:07;;;;;;;9.55;4.15;;;;;;;12.50;100.00;99721.22;4972147;28;20038;-86
2023/03/30 08:12:33;;;;;;;16.27;5.15;;;;;;;12.43;100.00;99737.66;4965051;28;20055;-86
2023/03/30 08:15:01;;;;;;;10.52;4.13;;;;;;;12.44;100.00;99764.09;4961056;28;20034;-85
2023/03/30 08:17:29;;;;;;;11.95;3.92;;;;;;;12.35;100.00;99756.72;4969375;28;20061;-85
2023/03/30 08:19:56;;;;;;;10.48;4.38;;;;;;;12.30;100.00;99754.38;4969109;28;20050;-85
2023/03/30 08:22:23;;;;;;;7.80;4.18;;;;;;;12.40;100.00;99765.25;4956390;28;20051;-86
2023/03/30 08:24:58;;;;;;;9.98;3.92;;;;;;;12.46;100.00;99759.53;4967734;28;20039;-85
2023/03/30 08:27:27;;;;;;;13.90;3.90;;;;;;;12.55;100.00;99761.63;4973335;28;20051;-85
2023/03/30 08:29:55;;;;;;;7.28;3.58;;;;;;;12.50;100.00;99742.47;4953328;28;20050;-85
2023/03/30 08:32:22;;;;;;;13.45;3.78;;;;;;;12.75;100.00;99756.81;4954154;28;20062;-84
2023/03/30 08:34:50;;;;;;;8.93;4.20;;;;;;;12.94;100.00;99746.63;4956977;28;20041;-84
2023/03/30 08:37:18;;;;;;;10.95;4.13;;;;;;;13.11;100.00;99757.00;4968970;28;20066;-85
2023/03/30 08:39:44;;;;;;;8.55;3.80;;;;;;;13.25;100.00;99756.09;4955623;28;20126;-85
2023/03/30 08:42:48;;;;;;;12.75;4.32;;;;;;;13.60;100.00;99757.19;4973568;28;20137;-84
2023/03/30 08:45:17;;;;;;;8.60;4.13;;;;;;;13.65;100.00;99731.13;4971324;28;20042;-84
2023/03/30 08:47:48;;;;;;;7.13;3.38;;;;;;;13.70;100.00;99742.25;4955767;28;20055;-84
2023/03/30 08:50:31;;;;;;;10.20;4.15;;;;;;;13.77;100.00;99736.53;4971269;28;20752;-85
2023/03/30 08:52:59;;;;;;;8.23;3.78;;;;;;;13.85;100.00;99720.88;4977111;28;20110;-85
2023/03/30 08:55:57;;;;;;;9.25;4.32;;;;;;;14.20;100.00;99734.31;4964835;28;20129;-86
2023/03/30 08:58:48;;;;;;;8.18;3.65;;;;;;;14.40;100.00;99731.09;4972414;28;20082;-85
2023/03/30 09:01:47;;;;;;;7.07;3.75;;;;;;;14.35;100.00;99750.03;4988129;28;20051;-86
2023/03/30 09:04:17;;;;;;;9.05;3.58;;;;;;;14.04;100.00;99746.06;4994691;28;20077;-87
2023/03/30 09:06:51;;;;;;;6.03;3.78;;;;;;;13.89;100.00;99722.34;4990608;28;20043;-86
2023/03/30 09:09:20;;;;;;;8.43;3.80;;;;;;;14.12;100.00;99753.50;4989842;28;20340;-86
2023/03/30 09:11:55;;;;;;;7.50;3.90;;;;;;;14.31;100.00;99740.56;4986876;28;20527;-89
2023/03/30 09:14:38;;;;;;;9.30;4.00;;;;;;;14.51;100.00;99755.13;4965961;28;20050;-86
2023/03/30 09:17:30;;;;;;;7.93;3.67;;;;;;;14.39;100.00;99706.22;4991967;28;20128;-88
2023/03/30 09:20:11;;;;;;;10.15;4.00;;;;;;;14.27;100.00;99731.09;4931816;28;20062;-88
2023/03/30 09:22:41;;;;;;;8.75;4.40;;;;;;;14.09;100.00;99699.63;4969480;28;20458;-87
2023/03/30 09:25:14;;;;;;;7.60;4.10;;;;;;;14.25;100.00;99727.69;4978862;28;20043;-87
2023/03/30 09:28:06;;;;;;;8.55;3.63;;;;;;;14.26;100.00;99732.06;4975631;28;20056;-87
2023/03/30 09:30:40;;;;;;;5.85;3.63;;;;;;;14.14;100.00;99722.31;4976613;28;20042;-88
2023/03/30 09:33:48;;;;;;;5.80;3.45;;;;;;;14.09;100.00;99736.91;4957836;28;20047;-88
2023/03/30 09:36:33;;;;;;;5.72;3.33;;;;;;;14.05;100.00;99749.56;4959406;28;20043;-86
2023/03/30 09:39:17;;;;;;;5.55;3.50;;;;;;;13.93;100.00;99747.78;4974173;28;20050;-85
2023/03/30 09:42:19;;;;;;;6.15;3.42;;;;;;;13.76;100.00;99733.00;5000357;28;20082;-85
2023/03/30 09:44:54;;;;;;;;;;;;;;;13.88;100.00;99740.13;4976300;28;20039;-86
2023/03/30 09:47:27;;;;;;;6.45;3.65;;;;;;;13.89;100.00;99740.97;4960371;28;19937;-86
2023/03/30 09:50:01;;;;;;;8.82;3.75;;;;;;;13.77;100.00;99707.25;4977595;28;20046;-86
2023/03/30 09:52:36;;;;;;;8.73;3.55;;;;;;;13.98;100.00;99721.72;4978980;28;20189;-87
2023/03/30 09:55:35;;;;;;;8.85;3.78;;;;;;;14.04;100.00;99730.09;4973071;28;20531;-86
2023/03/30 09:58:17;;;;;;;10.15;3.88;;;;;;;14.10;100.00;99728.81;4973209;28;20093;-87
2023/03/30 10:00:45;;;;;;;6.97;3.70;;;;;;;14.24;100.00;99723.31;4971211;28;20074;-86
2023/03/30 10:03:21;;;;;;;7.35;3.60;;;;;;;14.43;100.00;99730.88;4977824;28;20043;-86
2023/03/30 10:06:11;;;;;;;6.47;3.88;;;;;;;14.16;100.00;99707.06;4959433;28;20068;-86
2023/03/30 10:08:57;;;;;;;10.75;3.92;;;;;;;14.19;100.00;99735.25;4975212;28;20039;-89
2023/03/30 10:11:40;;;;;;;10.43;4.93;;;;;;;14.22;100.00;99703.94;4977424;28;20075;-88
2023/03/30 10:14:30;;;;;;;10.02;4.47;;;;;;;14.30;100.00;99696.25;4980309;28;20086;-86
2023/03/30 10:16:58;;;;;;;9.95;4.20;;;;;;;14.51;100.00;99735.63;4977603;28;20367;-87
2023/03/30 10:19:27;;;;;;;8.38;3.53;;;;;;;14.45;100.00;99744.06;4983111;28;20081;-88
2023/03/30 10:21:57;;;;;;;8.23;5.40;;;;;;;14.31;100.00;99705.94;4978643;28;20050;-87
2023/03/30 10:24:27;;;;;;;11.70;5.97;;;;;;;14.41;100.00;99699.97;4965524;28;20078;-88
2023/03/30 10:27:02;;;;;;;8.07;3.85;;;;;;;14.72;100.00;99740.22;4975854;28;20058;-86
2023/03/30 10:29:30;;;;;;;11.23;5.07;;;;;;;14.80;100.00;99728.13;4981770;28;20047;-90
2023/03/30 10:32:02;;;;;;;10.85;4.30;;;;;;;14.94;100.00;99731.47;4965266;28;20145;-89
2023/03/30 10:34:41;;;;;;;13.48;5.22;;;;;;;14.98;100.00;99722.25;4964113;28;20083;-89
2023/03/30 10:37:32;;;;;;;16.38;8.07;;;;;;;15.08;100.00;99717.09;4978036;28;20106;-90
2023/03/30 10:40:20;;;;;;;6.72;4.35;;;;;;;15.17;100.00;99699.53;4979157;28;20042;-86
2023/03/30 10:42:54;;;;;;;6.80;2.97;;;;;;;15.28;100.00;99720.88;4988678;28;20043;-89
2023/03/30 10:45:31;;;;;;;10.23;4.70;;;;;;;15.22;100.00;99716.03;4982536;28;20122;-87
2023/03/30 10:48:07;;;;;;;9.70;3.92;;;;;;;15.23;100.00;99720.41;4949616;28;20047;-87
2023/03/30 10:50:51;;;;;;;7.85;4.00;;;;;;;15.27;100.00;99711.19;4980429;28;20050;-87
2023/03/30 10:53:43;;;;;;;8.75;2.70;;;;;;;15.18;100.00;99717.22;4983171;28;20075;-87
2023/03/30 10:56:28;;;;;;;9.73;3.30;;;;;;;15.23;100.00;99729.25;4979919;28;20054;-88
2023/03/30 10:59:08;;;;;;;7.82;5.25;;;;;;;15.50;100.00;99685.38;4975916;28;20046;-89
2023/03/30 11:02:25;;;;;;;5.20;3.20;;;;;;;16.12;100.00;99712.47;4977606;28;20043;-88
2023/03/30 11:05:12;;;;;;;4.38;2.42;;;;;;;16.01;100.00;99702.66;4972995;28;20704;-89
2023/03/30 11:07:57;;;;;;;5.68;2.58;;;;;;;15.83;100.00;99703.25;4982078;28;20066;-89
2023/03/30 11:10:44;;;;;;;7.68;4.07;;;;;;;15.83;100.00;99709.44;4980762;28;20051;-87
2023/03/30 11:13:27;;;;;;;8.48;3.45;;;;;;;15.72;100.00;99699.63;4977884;28;20078;-89
2023/03/30 11:16:00;;;;;;;7.63;2.40;;;;;;;15.59;100.00;99704.22;4963560;28;20077;-87
2023/03/30 11:18:39;;;;;;;6.07;2.35;;;;;;;15.73;100.00;99708.50;4982566;28;20058;-89
2023/03/30 11:22:00;;;;;;;6.93;2.78;;;;;;;15.82;100.00;99690.88;4970939;28;20074;-88
2023/03/30 11:24:28;;;;;;;7.47;2.58;;;;;;;16.19;100.00;99710.16;4965814;28;20051;-90
2023/03/30 11:27:24;;;;;;;5.65;2.30;;;;;;;16.17;100.00;99693.41;4992782;28;20042;-92
2023/03/30 11:30:18;;;;;;;4.95;2.00;;;;;;;16.05;100.00;99682.75;4966046;28;20038;-91
2023/03/30 11:33:44;;;;;;;6.70;3.05;;;;;;;16.42;100.00;99701.09;4980621;28;20087;-91
2023/03/30 11:36:47;;;;;;;8.48;2.83;;;;;;;16.20;100.00;99706.50;4975395;28;20061;-92
2023/03/30 11:39:28;;;;;;;6.22;1.98;;;;;;;15.93;100.00;99688.19;4978374;28;20077;-90
2023/03/30 11:42:20;;;;;;;10.23;2.50;;;;;;;15.55;100.00;99681.44;4948941;28;20042;-90
2023/03/30 11:45:16;;;;;;;5.85;1.90;;;;;;;15.64;100.00;99691.38;4981084;28;20038;-91
2023/03/30 11:48:06;;;;;;;5.30;2.10;;;;;;;15.45;100.00;99691.94;4957408;28;20039;-90
2023/03/30 11:50:55;;;;;;;6.97;1.90;;;;;;;15.29;100.00;99704.75;4991511;28;20109;-89
2023/03/30 11:53:40;;;;;;;5.85;2.78;;;;;;;15.35;100.00;99703.44;4985580;28;20043;-90
2023/03/30 11:56:29;;;;;;;6.32;1.88;;;;;;;15.66;99.06;99713.47;4980801;28;20069;-89
2023/03/30 11:59:05;;;;;;;4.43;1.50;;;;;;;15.98;94.55;99715.38;4982549;28;20059;-91
2023/03/30 12:01:58;;;;;;;3.17;1.65;;;;;;;16.02;92.14;99692.81;4980186;28;20077;-89